createdAt,value
2023-02-22T00:04:10.691Z,25.0
2023-02-22T00:09:16.881Z,26.0
2023-02-22T00:14:23.087Z,27.0
2023-02-22T00:19:29.294Z,26.0
2023-02-22T00:24:35.499Z,27.0
2023-02-22T00:29:41.710Z,27.0
2023-02-22T00:34:47.912Z,25.0
2023-02-22T00:39:54.124Z,26.0
2023-02-22T00:45:00.345Z,25.0
2023-02-22T00:50:06.545Z,23.0
2023-02-22T00:55:12.748Z,23.0
2023-02-22T01:00:18.959Z,23.0
2023-02-22T01:05:25.164Z,25.0
2023-02-22T01:10:31.374Z,23.0
2023-02-22T01:15:37.599Z,24.0
2023-02-22T01:20:43.784Z,25.0
2023-02-22T01:25:49.998Z,25.0
2023-02-22T01:30:56.669Z,26.0
2023-02-22T01:36:01.435Z,25.0
2023-02-22T01:41:07.664Z,25.0
2023-02-22T01:46:13.876Z,25.5
2023-02-22T01:51:19.264Z,27.0
2023-02-22T01:56:25.314Z,27.0
2023-02-22T02:01:30.520Z,26.0
2023-02-22T02:06:36.731Z,26.0
2023-02-22T02:11:42.955Z,28.0
2023-02-22T02:16:49.542Z,27.0
2023-02-22T02:21:55.370Z,28.0
2023-02-22T02:27:01.570Z,28.0
2023-02-22T02:32:07.961Z,30.0
2023-02-22T02:37:13.981Z,31.0
2023-02-22T02:42:20.190Z,29.5
2023-02-22T02:47:26.550Z,31.0
2023-02-22T02:52:32.885Z,29.0
2023-02-22T02:57:38.819Z,30.0
2023-02-22T03:02:45.024Z,29.0
2023-02-22T03:07:51.232Z,31.0
2023-02-22T03:12:57.439Z,30.0
2023-02-22T03:18:03.767Z,31.0
2023-02-22T03:23:09.851Z,32.0
2023-02-22T03:28:16.076Z,31.5
2023-02-22T03:33:22.281Z,33.0
2023-02-22T03:38:28.479Z,33.0
2023-02-22T03:43:34.697Z,32.0
2023-02-22T03:48:39.944Z,32.0
2023-02-22T03:53:46.132Z,32.5
2023-02-22T03:58:51.363Z,32.0
2023-02-22T04:03:57.656Z,32.0
2023-02-22T04:09:03.791Z,31.0
2023-02-22T04:14:09.994Z,31.0
2023-02-22T04:19:16.200Z,30.5
2023-02-22T04:24:22.428Z,30.0
2023-02-22T04:29:28.614Z,32.0
2023-02-22T04:34:34.822Z,29.5
2023-02-22T04:39:41.082Z,28.0
2023-02-22T04:44:47.243Z,28.0
2023-02-22T04:49:53.441Z,27.0
2023-02-22T04:54:59.652Z,28.0
2023-02-22T05:00:05.877Z,27.0
2023-02-22T05:05:12.066Z,28.0
2023-02-22T05:10:18.309Z,28.0
2023-02-22T05:15:24.544Z,29.0
2023-02-22T05:20:30.686Z,29.0
2023-02-22T05:25:36.895Z,29.0
2023-02-22T05:30:43.138Z,29.0
2023-02-22T05:35:49.315Z,27.5
2023-02-22T05:40:55.524Z,28.0
2023-02-22T05:46:00.763Z,28.0
2023-02-22T05:51:07.065Z,29.0
2023-02-22T05:56:12.208Z,28.0
2023-02-22T06:01:18.686Z,28.0
2023-02-22T06:06:24.615Z,28.5
2023-02-22T06:11:30.816Z,29.0
2023-02-22T06:16:37.060Z,26.0
2023-02-22T06:21:43.454Z,27.0
2023-02-22T06:26:49.440Z,28.0
2023-02-22T06:31:55.810Z,28.0
2023-02-22T06:37:01.856Z,28.0
2023-02-22T06:42:08.107Z,27.0
2023-02-22T06:47:14.271Z,28.0
2023-02-22T06:52:20.484Z,27.0
2023-02-22T06:57:26.682Z,28.0
2023-02-22T07:02:32.897Z,28.0
2023-02-22T07:07:39.103Z,29.0
2023-02-22T07:12:45.327Z,30.0
2023-02-22T07:17:50.558Z,27.0
2023-02-22T07:22:56.749Z,27.0
2023-02-22T07:28:02.962Z,26.0
2023-02-22T07:33:09.279Z,27.0
2023-02-22T07:38:15.378Z,25.0
2023-02-22T07:43:20.655Z,27.0
2023-02-22T07:48:26.832Z,26.0
2023-02-22T07:53:33.029Z,26.5
2023-02-22T07:58:38.371Z,26.0
2023-02-22T08:03:44.891Z,27.0
2023-02-22T08:08:50.685Z,27.0
2023-02-22T08:13:56.888Z,27.0
2023-02-22T08:19:03.094Z,26.0
2023-02-22T08:24:09.304Z,26.0
2023-02-22T08:29:15.516Z,26.0
2023-02-22T08:34:21.736Z,27.5
2023-02-22T08:39:27.922Z,26.0
2023-02-22T08:44:34.133Z,26.0
2023-02-22T08:49:40.364Z,27.0
2023-02-22T08:54:46.540Z,27.0
2023-02-22T08:59:53.077Z,29.0
2023-02-22T09:04:58.987Z,27.0
2023-02-22T09:10:05.167Z,28.0
2023-02-22T09:15:11.373Z,27.0
2023-02-22T09:20:17.640Z,30.0
2023-02-22T09:25:23.792Z,28.0
2023-02-22T09:30:30.009Z,29.0
2023-02-22T09:35:36.610Z,28.0
2023-02-22T09:40:42.407Z,28.0
2023-02-22T09:45:47.662Z,27.0
2023-02-22T09:50:53.853Z,26.0
2023-02-22T09:55:59.091Z,26.0
2023-02-22T10:01:05.299Z,26.0
2023-02-22T10:06:11.519Z,25.0
2023-02-22T10:11:17.709Z,25.0
2023-02-22T10:16:23.949Z,25.0
2023-02-22T10:21:30.128Z,25.0
2023-02-22T10:26:36.343Z,25.0
2023-02-22T10:31:42.590Z,25.0
2023-02-22T10:36:48.764Z,24.0
2023-02-22T10:41:54.966Z,23.0
2023-02-22T10:47:01.184Z,21.0
2023-02-22T10:52:07.389Z,22.0
2023-02-22T10:57:13.925Z,19.5
2023-02-22T11:02:19.799Z,21.0
2023-02-22T11:07:26.002Z,20.0
2023-02-22T11:12:32.229Z,19.5
2023-02-22T11:17:38.422Z,19.0
2023-02-22T11:22:44.634Z,19.5
2023-02-22T11:27:50.990Z,18.0
2023-02-22T11:32:57.052Z,16.0
2023-02-22T11:38:03.395Z,17.0
2023-02-22T11:43:08.803Z,13.0
2023-02-22T11:48:14.771Z,13.0
2023-02-22T11:53:20.906Z,13.0
2023-02-22T11:58:27.227Z,12.0
2023-02-22T12:03:33.394Z,13.0
2023-02-22T12:08:39.544Z,14.0
2023-02-22T12:13:45.753Z,13.0
2023-02-22T12:18:51.961Z,14.0
2023-02-22T12:23:58.186Z,14.0
2023-02-22T12:29:04.417Z,14.0
2023-02-22T12:34:10.721Z,15.0
2023-02-22T12:39:16.847Z,14.0
2023-02-22T12:44:23.056Z,14.0
2023-02-22T12:49:29.275Z,14.0
2023-02-22T12:54:35.489Z,13.0
2023-02-22T12:59:41.698Z,14.0
2023-02-22T13:04:47.896Z,14.0
2023-02-22T13:09:54.105Z,15.0
2023-02-22T13:15:00.321Z,14.0
2023-02-22T13:20:06.522Z,14.0
2023-02-22T13:25:12.751Z,14.0
2023-02-22T13:30:18.977Z,15.0
2023-02-22T13:35:24.198Z,15.0
2023-02-22T13:40:30.379Z,15.0
2023-02-22T13:45:35.614Z,15.0
2023-02-22T13:50:41.825Z,16.0
2023-02-22T13:55:47.313Z,16.0
2023-02-22T14:00:53.274Z,16.0
2023-02-22T14:05:59.481Z,15.0
2023-02-22T14:11:05.711Z,16.0
2023-02-22T14:16:11.958Z,17.0
2023-02-22T14:21:18.133Z,15.0
2023-02-22T14:26:24.352Z,15.0
2023-02-22T14:31:36.441Z,14.0
2023-02-22T14:36:36.783Z,14.0
2023-02-22T14:41:43.036Z,15.0
2023-02-22T14:46:49.554Z,15.0
2023-02-22T14:51:55.426Z,16.0
2023-02-22T14:57:01.650Z,15.0
2023-02-22T15:02:11.660Z,16.0
2023-02-22T15:07:14.183Z,16.0
2023-02-22T15:12:20.319Z,16.0
2023-02-22T15:17:26.489Z,16.0
2023-02-22T15:22:32.690Z,16.0
2023-02-22T15:27:38.939Z,17.0
2023-02-22T15:33:02.589Z,17.0
2023-02-22T15:37:51.321Z,19.0
2023-02-22T15:42:56.562Z,19.0
2023-02-22T15:48:03.082Z,19.0
2023-02-22T15:53:08.010Z,18.5
2023-02-22T15:58:14.231Z,19.0
2023-02-22T16:03:20.432Z,18.0
2023-02-22T16:08:26.633Z,19.0
2023-02-22T16:13:33.197Z,20.0
2023-02-22T16:18:39.052Z,19.0
2023-02-22T16:23:45.262Z,19.5
2023-02-22T16:28:51.466Z,20.0
2023-02-22T16:33:57.678Z,20.0
2023-02-22T16:39:03.884Z,20.0
2023-02-22T16:44:10.142Z,20.0
2023-02-22T16:49:16.313Z,20.0
2023-02-22T16:54:22.505Z,20.0
2023-02-22T16:59:28.712Z,21.0
2023-02-22T17:04:34.936Z,21.0
2023-02-22T17:09:41.122Z,21.0
2023-02-22T17:14:47.326Z,20.0
2023-02-22T17:19:53.540Z,21.0
2023-02-22T17:24:59.757Z,22.0
2023-02-22T17:30:05.953Z,22.0
2023-02-22T17:35:12.163Z,22.0
2023-02-22T17:40:17.433Z,22.0
2023-02-22T17:45:23.614Z,22.0
2023-02-22T17:50:28.854Z,23.0
2023-02-22T17:55:35.065Z,22.5
2023-02-22T18:00:41.279Z,23.0
2023-02-22T18:05:47.475Z,23.0
2023-02-22T18:10:53.675Z,24.0
2023-02-22T18:16:00.419Z,23.0
2023-02-22T18:21:06.095Z,23.0
2023-02-22T18:26:12.323Z,23.0
2023-02-22T18:31:18.563Z,24.0
2023-02-22T18:36:24.866Z,24.0
2023-02-22T18:41:30.925Z,23.0
2023-02-22T18:46:37.200Z,23.5
2023-02-22T18:51:43.342Z,24.0
2023-02-22T18:56:49.549Z,24.5
2023-02-22T19:01:55.795Z,27.5
2023-02-22T19:07:01.967Z,29.0
2023-02-22T19:12:08.179Z,32.0
2023-02-22T19:17:14.388Z,37.0
2023-02-22T19:22:20.598Z,39.0
2023-02-22T19:27:26.801Z,41.0
2023-02-22T19:32:33.059Z,44.0
2023-02-22T19:37:38.238Z,43.0
2023-02-22T19:42:44.456Z,43.5
2023-02-22T19:47:49.691Z,45.0
2023-02-22T19:52:55.892Z,46.0
2023-02-22T19:58:02.115Z,49.0
2023-02-22T20:03:08.349Z,51.0
2023-02-22T20:08:14.511Z,53.0
2023-02-22T20:13:20.727Z,57.0
2023-02-22T20:18:27.262Z,59.0
2023-02-22T20:23:33.138Z,58.0
2023-02-22T20:28:39.349Z,57.0
2023-02-22T20:33:45.773Z,57.0
2023-02-22T20:38:51.770Z,54.0
2023-02-22T20:43:57.980Z,54.0
2023-02-22T20:49:04.186Z,51.0
2023-02-22T20:54:10.393Z,51.0
2023-02-22T20:59:16.598Z,51.0
2023-02-22T21:04:23.091Z,51.0
2023-02-22T21:09:29.017Z,50.0
2023-02-22T21:14:35.229Z,50.0
2023-02-22T21:19:41.435Z,47.5
2023-02-22T21:24:47.645Z,48.0
2023-02-22T21:29:53.845Z,48.0
2023-02-22T21:34:59.087Z,48.0
2023-02-22T21:40:05.294Z,47.0
2023-02-22T21:45:10.529Z,47.0
2023-02-22T21:50:16.752Z,47.0
2023-02-22T21:55:22.945Z,47.0
2023-02-22T22:00:29.345Z,47.0
2023-02-22T22:05:35.371Z,46.0
2023-02-22T22:10:41.570Z,45.5
2023-02-22T22:15:47.826Z,46.0
2023-02-22T22:20:53.978Z,45.0
2023-02-22T22:26:00.184Z,44.0
2023-02-22T22:31:06.509Z,44.0
2023-02-22T22:36:12.720Z,44.0
2023-02-22T22:41:19.390Z,43.0
2023-02-22T22:46:25.078Z,45.0
2023-02-22T22:51:33.364Z,45.0
2023-02-22T22:56:37.438Z,44.0
2023-02-22T23:01:43.648Z,43.5
2023-02-22T23:06:49.884Z,44.0
2023-02-22T23:11:56.067Z,44.0
2023-02-22T23:17:02.275Z,43.0
2023-02-22T23:22:08.473Z,44.0
2023-02-22T23:27:14.676Z,44.0
2023-02-22T23:32:20.151Z,43.0
2023-02-22T23:37:26.130Z,43.0
2023-02-22T23:42:31.719Z,44.0
2023-02-22T23:47:37.573Z,43.0
2023-02-22T23:52:43.784Z,43.0
2023-02-22T23:57:50.000Z,43.0
